Time;durP1;ratioP1;P1;durP2;ratioP2;P2;SDS_P1;SDS_P2;PMS_P1;PMS_P2;Temp;Humidity;BMP_temperature;BMP_pressure;BME280_temperature;BME280_humidity;BME280_pressure;Samples;Min_cycle;Max_cycle;Signal;HPM_P1;HPM_P2
2022/01/13 00:00:20;;;;;;;50.10;27.60;;;;;;;-1.06;78.21;101912.66;106575;1276;22471;-79
2022/01/13 00:02:47;;;;;;;44.00;22.20;;;;;;;-1.08;78.09;101906.15;105962;1276;24278;-83
2022/01/13 00:05:15;;;;;;;65.60;34.20;;;;;;;-1.05;77.89;101915.46;106002;1276;25255;-80
2022/01/13 00:07:42;;;;;;;54.50;27.20;;;;;;;-0.99;77.97;101912.55;105996;1276;25485;-82
2022/01/13 00:10:09;;;;;;;45.90;23.10;;;;;;;-0.96;78.00;101917.42;106073;1274;23306;-77
2022/01/13 00:12:41;;;;;;;56.00;27.50;;;;;;;-0.96;77.77;101910.84;105732;1277;22653;-81
2022/01/13 00:15:40;;;;;;;55.70;28.20;;;;;;;-1.02;77.87;101897.19;106032;1276;22586;-82
2022/01/13 00:18:14;;;;;;;46.80;24.80;;;;;;;-1.04;78.04;101893.80;105836;1276;24126;-82
2022/01/13 00:23:42;;;;;;;56.90;31.00;;;;;;;-1.07;78.32;101878.38;105932;1276;22725;-83
2022/01/13 00:28:47;;;;;;;58.20;28.00;;;;;;;-1.01;78.34;101886.36;105952;1276;22541;-82
2022/01/13 00:31:18;;;;;;;60.10;29.30;;;;;;;-0.99;78.22;101893.05;106088;1276;23760;-82
2022/01/13 00:33:46;;;;;;;56.20;29.00;;;;;;;-1.00;78.20;101880.35;106190;1275;22566;-82
2022/01/13 00:36:14;;;;;;;49.80;26.10;;;;;;;-0.97;78.21;101870.15;105956;1276;22563;-82
2022/01/13 00:38:41;;;;;;;54.50;28.30;;;;;;;-0.99;78.20;101864.80;105925;1279;24262;-82
2022/01/13 00:41:08;;;;;;;48.30;26.30;;;;;;;-1.03;78.36;101844.91;105904;1279;22537;-81
2022/01/13 00:43:41;;;;;;;47.70;25.90;;;;;;;-1.06;78.40;101852.15;106014;1277;22714;-84
2022/01/13 00:46:09;;;;;;;49.00;26.10;;;;;;;-1.10;78.41;101840.50;106028;1276;25277;-82
2022/01/13 00:48:36;;;;;;;42.00;21.70;;;;;;;-1.14;78.40;101832.83;105728;1277;22531;-86
2022/01/13 00:51:04;;;;;;;34.70;19.40;;;;;;;-1.16;78.48;101833.70;106023;1276;25194;-81
2022/01/13 00:53:31;;;;;;;47.60;23.00;;;;;;;-1.17;78.54;101836.41;105783;1279;24213;-81
2022/01/13 00:55:58;;;;;;;38.30;21.60;;;;;;;-1.17;78.57;101830.56;106019;1276;22563;-81
2022/01/13 00:58:30;;;;;;;49.20;25.70;;;;;;;-1.15;78.61;101859.89;105982;1275;25438;-77
2022/01/13 01:00:58;;;;;;;47.00;25.70;;;;;;;-1.10;78.54;101888.06;106081;1276;25255;-77
2022/01/13 01:03:26;;;;;;;41.30;22.10;;;;;;;-1.05;78.45;101907.70;106047;1275;24261;-76
2022/01/13 01:05:55;;;;;;;39.50;21.60;;;;;;;-1.02;78.38;101901.52;105853;1275;22607;-81
2022/01/13 01:08:22;;;;;;;50.00;28.00;;;;;;;-0.99;78.30;101869.15;105810;1276;22498;-83
2022/01/13 01:10:52;;;;;;;45.10;23.50;;;;;;;-1.02;78.29;101838.73;105946;1276;25331;-82
2022/01/13 01:13:25;;;;;;;45.30;25.40;;;;;;;-1.01;78.33;101818.42;105961;1274;22557;-82
2022/01/13 01:15:56;;;;;;;39.10;19.20;;;;;;;-1.06;78.38;101803.02;105959;1274;25400;-83
2022/01/13 01:23:34;;;;;;;39.40;22.50;;;;;;;-1.01;78.44;101784.81;106116;1276;23193;-83
2022/01/13 01:26:52;;;;;;;41.50;22.90;;;;;;;-0.97;78.30;101781.41;106175;1274;22587;-77
2022/01/13 01:29:28;;;;;;;40.50;22.70;;;;;;;-0.97;78.31;101780.52;105764;1276;24121;-78
2022/01/13 01:31:49;;;;;;;31.70;14.80;;;;;;;-0.98;78.38;101784.83;106013;1275;24235;-77
2022/01/13 01:36:52;;;;;;;43.00;24.30;;;;;;;-1.05;78.23;101796.02;106027;1275;25482;-77
2022/01/13 01:39:19;;;;;;;43.70;23.00;;;;;;;-1.02;78.27;101805.71;105950;1277;24777;-83
2022/01/13 01:41:50;;;;;;;35.40;17.10;;;;;;;-1.01;78.17;101804.04;105957;1275;24686;-80
2022/01/13 01:44:21;;;;;;;45.20;23.90;;;;;;;-1.02;77.98;101819.21;106015;1275;25260;-80
2022/01/13 01:46:48;;;;;;;40.50;20.20;;;;;;;-0.97;78.15;101830.23;106102;1274;23224;-78
2022/01/13 01:49:23;;;;;;;43.20;22.80;;;;;;;-0.94;77.89;101832.27;105969;1276;24312;-76
2022/01/13 01:51:53;;;;;;;31.00;15.30;;;;;;;-0.94;77.87;101818.08;105602;1281;22779;-78
2022/01/13 01:54:21;;;;;;;51.00;20.70;;;;;;;-0.95;77.68;101800.89;105524;1282;22550;-80
2022/01/13 01:56:48;;;;;;;42.20;21.50;;;;;;;-0.96;77.79;101788.75;105498;1282;22575;-81
2022/01/13 01:59:20;;;;;;;35.30;19.40;;;;;;;-0.92;77.87;101787.79;105545;1281;24384;-80
2022/01/13 02:01:49;;;;;;;32.00;17.30;;;;;;;-0.91;77.70;101798.08;105290;1281;24951;-79
2022/01/13 02:04:18;;;;;;;41.80;19.90;;;;;;;-0.90;77.75;101800.49;105325;1281;22616;-79
2022/01/13 02:06:45;;;;;;;36.40;19.10;;;;;;;-0.86;77.79;101816.32;105648;1281;23100;-77
2022/01/13 02:09:17;;;;;;;36.50;17.90;;;;;;;-0.89;77.59;101816.69;105510;1280;22541;-78
2022/01/13 02:11:48;;;;;;;36.60;17.70;;;;;;;-0.90;77.64;101814.71;106218;1276;23222;-81
2022/01/13 02:17:02;;;;;;;36.00;19.10;;;;;;;-0.91;77.98;101816.88;106445;1275;23390;-78
2022/01/13 02:19:31;;;;;;;43.00;20.10;;;;;;;-0.89;77.83;101804.21;105773;1279;24296;-80
2022/01/13 02:21:59;;;;;;;36.40;17.20;;;;;;;-0.95;77.85;101781.89;105750;1279;23988;-82
2022/01/13 02:24:27;;;;;;;46.90;21.60;;;;;;;-0.98;77.89;101783.25;105592;1279;22551;-76
2022/01/13 02:26:54;;;;;;;44.50;22.30;;;;;;;-0.94;78.11;101790.59;105534;1281;22964;-78
2022/01/13 02:29:22;;;;;;;41.60;19.40;;;;;;;-0.92;78.10;101787.27;105224;1282;24491;-81
2022/01/13 02:31:48;;;;;;;43.50;20.40;;;;;;;-0.87;78.06;101795.84;105535;1282;25642;-79
2022/01/13 02:34:16;;;;;;;48.40;22.00;;;;;;;-0.88;77.98;101795.81;105543;1279;25613;-80
2022/01/13 02:36:46;;;;;;;37.50;17.80;;;;;;;-0.85;78.01;101794.43;105674;1279;22592;-77
2022/01/13 02:39:13;;;;;;;44.90;21.10;;;;;;;-0.84;77.97;101801.77;106061;1274;22585;-80
2022/01/13 02:41:40;;;;;;;37.10;16.60;;;;;;;-0.85;78.10;101804.29;106143;1276;22710;-80
2022/01/13 02:44:14;;;;;;;49.20;22.10;;;;;;;-0.88;78.04;101800.13;106239;1277;22561;-77
2022/01/13 02:49:20;;;;;;;43.80;20.40;;;;;;;-0.89;78.28;101803.71;108055;1281;22603;-77
2022/01/13 02:51:53;;;;;;;50.40;24.20;;;;;;;-0.87;78.16;101809.86;106418;1284;22549;-80
2022/01/13 02:54:22;;;;;;;32.60;14.60;;;;;;;-0.87;78.21;101801.38;106316;1281;22559;-78
2022/01/13 02:56:49;;;;;;;45.10;22.70;;;;;;;-0.87;78.26;101798.12;108053;1281;22667;-78
2022/01/13 02:59:16;;;;;;;40.40;20.60;;;;;;;-0.87;78.33;101786.36;108467;1281;22686;-78
2022/01/13 03:01:43;;;;;;;33.60;17.60;;;;;;;-0.82;78.54;101778.66;106447;1281;22548;-79
2022/01/13 03:04:10;;;;;;;39.60;18.40;;;;;;;-0.80;78.47;101772.94;106090;1275;25250;-80
2022/01/13 03:06:39;;;;;;;38.90;21.00;;;;;;;-0.73;78.43;101768.83;106129;1276;22561;-80
2022/01/13 03:09:15;;;;;;;44.30;19.60;;;;;;;-0.71;78.30;101765.48;106246;1275;24279;-80
2022/01/13 03:11:44;;;;;;;43.00;20.20;;;;;;;-0.76;78.33;101757.77;106230;1275;25386;-80
2022/01/13 03:14:13;;;;;;;38.30;16.90;;;;;;;-0.75;78.53;101755.58;106161;1277;22565;-80
2022/01/13 03:16:42;;;;;;;40.30;18.60;;;;;;;-0.77;78.59;101749.24;107383;1274;22584;-78
2022/01/13 03:19:10;;;;;;;42.60;19.30;;;;;;;-0.78;78.77;101739.47;107611;1274;22923;-76
2022/01/13 03:21:38;;;;;;;41.80;19.10;;;;;;;-0.71;78.94;101734.14;108361;1275;22552;-79
2022/01/13 03:24:10;;;;;;;39.50;19.10;;;;;;;-0.70;78.74;101728.66;108117;1274;22546;-76
2022/01/13 03:26:38;;;;;;;42.00;18.80;;;;;;;-0.67;78.85;101726.63;107748;1274;24398;-77
2022/01/13 03:31:42;;;;;;;41.20;20.20;;;;;;;-0.59;78.96;101730.88;105943;1281;22551;-83
2022/01/13 03:34:09;;;;;;;43.50;20.20;;;;;;;-0.63;79.03;101730.15;106198;1281;25404;-82
2022/01/13 03:36:36;;;;;;;37.00;18.80;;;;;;;-0.66;79.75;101719.42;105354;1284;22707;-84
2022/01/13 03:39:06;;;;;;;32.40;15.90;;;;;;;-0.73;79.62;101715.87;105164;1287;22551;-78
2022/01/13 03:41:34;;;;;;;42.50;20.30;;;;;;;-0.80;80.00;101714.13;104832;1288;22502;-87
2022/01/13 03:44:06;;;;;;;38.00;15.90;;;;;;;-0.82;80.17;101705.50;104941;1287;25557;-86
2022/01/13 03:46:37;;;;;;;35.90;18.30;;;;;;;-0.81;80.28;101697.61;104879;1287;23954;-86
2022/01/13 03:49:09;;;;;;;36.70;19.70;;;;;;;-0.78;80.38;101691.77;105038;1287;25384;-84
2022/01/13 03:52:05;;;;;;;33.80;16.10;;;;;;;-0.78;80.27;101673.60;105155;1284;24425;-81
2022/01/13 03:54:32;;;;;;;33.60;15.50;;;;;;;-0.75;80.39;101677.54;105497;1277;25208;-81
2022/01/13 03:57:36;;;;;;;36.80;16.10;;;;;;;-0.78;80.91;101668.39;105806;1277;22824;-80
2022/01/13 04:00:43;;;;;;;30.30;14.60;;;;;;;-0.80;80.69;101671.23;105948;1277;22927;-78
2022/01/13 04:03:11;;;;;;;21.50;11.00;;;;;;;-0.77;80.90;101666.52;105912;1278;25249;-87
2022/01/13 04:06:29;;;;;;;32.10;16.00;;;;;;;-0.75;80.96;101659.75;105756;1274;24499;-89
2022/01/13 04:08:56;;;;;;;24.50;11.90;;;;;;;-0.78;80.86;101655.07;106316;1277;22668;-89
2022/01/13 04:11:29;;;;;;;30.00;14.60;;;;;;;-0.81;81.15;101657.48;106275;1274;25426;-84
2022/01/13 04:14:00;;;;;;;30.80;15.50;;;;;;;-0.84;81.36;101652.64;106280;1274;24225;-84
2022/01/13 04:16:31;;;;;;;23.90;11.40;;;;;;;-0.79;81.47;101645.13;106162;1274;25265;-82
2022/01/13 04:19:04;;;;;;;23.30;10.40;;;;;;;-0.76;81.50;101644.10;106046;1276;24272;-83
2022/01/13 04:21:34;;;;;;;29.00;14.30;;;;;;;-0.81;81.64;101633.09;105986;1275;25251;-82
2022/01/13 04:24:03;;;;;;;23.70;12.20;;;;;;;-0.82;81.83;101616.08;106011;1277;24294;-81
2022/01/13 04:26:33;;;;;;;27.10;13.70;;;;;;;-0.85;82.59;101616.42;106125;1274;25456;-79
2022/01/13 04:31:41;;;;;;;;;;;;;;;-0.79;82.91;101612.64;105941;1274;25329;-80
2022/01/13 04:34:08;;;;;;;32.10;16.10;;;;;;;-0.71;82.63;101605.46;106012;1274;25562;-78
2022/01/13 04:36:36;;;;;;;29.80;14.70;;;;;;;-0.64;82.53;101607.73;105891;1277;25526;-78
2022/01/13 04:39:04;;;;;;;28.90;14.60;;;;;;;-0.59;82.52;101609.41;106018;1276;22564;-81
2022/01/13 04:41:36;;;;;;;27.90;14.80;;;;;;;-0.55;82.52;101602.52;105945;1277;25431;-79
2022/01/13 04:44:08;;;;;;;28.50;15.30;;;;;;;-0.51;82.25;101608.45;105990;1274;26524;-76
2022/01/13 04:46:36;;;;;;;26.40;14.00;;;;;;;-0.54;82.84;101621.80;106031;1275;22582;-81
2022/01/13 04:49:05;;;;;;;25.30;13.00;;;;;;;-0.58;82.97;101618.81;105497;1281;22562;-79
2022/01/13 04:51:33;;;;;;;29.00;14.30;;;;;;;-0.58;83.16;101621.23;105202;1284;24257;-75
2022/01/13 04:54:00;;;;;;;27.70;14.50;;;;;;;-0.58;83.33;101616.71;105253;1284;25308;-78
2022/01/13 04:56:30;;;;;;;23.60;13.50;;;;;;;-0.59;83.24;101603.17;105033;1287;22545;-78
2022/01/13 04:58:58;;;;;;;16.10;10.10;;;;;;;-0.59;83.44;101603.34;104703;1287;25388;-81
2022/01/13 05:01:25;;;;;;;26.10;13.30;;;;;;;-0.58;83.43;101589.20;104650;1290;22576;-80
2022/01/13 05:03:52;;;;;;;21.10;12.40;;;;;;;-0.56;83.63;101573.08;104270;1293;25379;-79
2022/01/13 05:06:19;;;;;;;25.30;13.70;;;;;;;-0.51;83.78;101578.34;104183;1290;22634;-76
2022/01/13 05:08:48;;;;;;;19.60;12.10;;;;;;;-0.43;83.96;101576.20;105125;1285;22731;-80
2022/01/13 05:11:17;;;;;;;21.20;12.30;;;;;;;-0.40;83.50;101581.05;105765;1285;23858;-82
2022/01/13 05:13:45;;;;;;;17.60;9.70;;;;;;;-0.37;83.57;101594.18;105828;1284;23150;-82
2022/01/13 05:16:23;;;;;;;17.70;10.30;;;;;;;-0.41;83.49;101598.48;106249;1281;22575;-82
2022/01/13 05:19:11;;;;;;;12.70;7.80;;;;;;;-0.42;83.59;101596.35;106957;1281;22574;-87
2022/01/13 05:24:26;;;;;;;18.00;10.40;;;;;;;-0.41;83.64;101595.50;106273;1274;26628;-77
2022/01/13 05:26:58;;;;;;;14.10;9.80;;;;;;;-0.40;83.77;101606.50;106200;1276;22714;-82
2022/01/13 05:29:26;;;;;;;17.50;10.90;;;;;;;-0.38;83.65;101588.90;106057;1275;25459;-80
2022/01/13 05:31:54;;;;;;;14.90;9.70;;;;;;;-0.35;83.96;101584.37;105969;1274;24417;-81
2022/01/13 05:34:21;;;;;;;14.90;9.40;;;;;;;-0.37;83.66;101577.39;106017;1276;22714;-82
2022/01/13 05:37:08;;;;;;;16.70;9.40;;;;;;;-0.38;83.61;101575.95;105971;1274;25533;-78
2022/01/13 05:39:36;;;;;;;12.10;8.60;;;;;;;-0.41;83.79;101562.09;106037;1274;24006;-82
2022/01/13 05:42:04;;;;;;;9.90;6.60;;;;;;;-0.38;83.96;101558.46;106052;1274;25518;-82
2022/01/13 05:44:37;;;;;;;15.10;9.50;;;;;;;-0.37;83.89;101540.14;105796;1274;25335;-84
2022/01/13 05:47:11;;;;;;;12.80;8.30;;;;;;;-0.40;84.02;101545.02;106107;1274;22595;-82
2022/01/13 05:49:40;;;;;;;13.60;8.50;;;;;;;-0.46;84.40;101552.13;105790;1275;22659;-80
2022/01/13 05:52:09;;;;;;;14.60;9.40;;;;;;;-0.47;84.40;101543.09;106004;1274;23285;-85
2022/01/13 05:54:36;;;;;;;10.70;6.70;;;;;;;-0.39;84.46;101549.39;106096;1274;22575;-79
2022/01/13 05:57:04;;;;;;;12.70;8.70;;;;;;;-0.36;84.84;101537.43;106112;1274;27220;-80
2022/01/13 05:59:31;;;;;;;14.90;9.20;;;;;;;-0.42;84.77;101523.27;106046;1274;22551;-81
2022/01/13 06:01:59;;;;;;;10.00;6.90;;;;;;;-0.44;84.88;101527.48;106115;1274;22849;-82
2022/01/13 06:04:26;;;;;;;9.90;6.70;;;;;;;-0.47;84.78;101521.98;105741;1274;23926;-80
2022/01/13 06:06:54;;;;;;;14.70;8.30;;;;;;;-0.52;84.99;101513.79;106185;1273;23925;-81
2022/01/13 06:09:25;;;;;;;11.10;7.00;;;;;;;-0.51;85.06;101524.52;106265;1275;22554;-82
2022/01/13 06:11:58;;;;;;;12.00;7.80;;;;;;;-0.51;85.23;101512.77;105732;1281;25254;-82
2022/01/13 06:14:25;;;;;;;10.90;7.70;;;;;;;-0.49;85.58;101513.57;105405;1284;25368;-82
2022/01/13 06:16:53;;;;;;;10.90;7.20;;;;;;;-0.48;85.46;101510.34;105037;1284;22586;-81
2022/01/13 06:19:20;;;;;;;14.50;8.70;;;;;;;-0.48;85.69;101518.81;105327;1287;24370;-78
2022/01/13 06:21:48;;;;;;;10.60;8.00;;;;;;;-0.46;85.57;101514.41;104148;1291;22627;-82
2022/01/13 06:24:15;;;;;;;13.30;8.70;;;;;;;-0.40;85.46;101504.69;104012;1293;22592;-83
2022/01/13 06:26:43;;;;;;;11.40;6.10;;;;;;;-0.38;85.53;101491.16;104532;1290;24284;-80
2022/01/13 06:29:10;;;;;;;13.10;9.60;;;;;;;-0.41;85.73;101475.22;104591;1289;22603;-83
2022/01/13 06:31:38;;;;;;;10.60;7.80;;;;;;;-0.37;85.86;101456.04;105364;1284;23991;-82
2022/01/13 06:34:05;;;;;;;11.50;8.10;;;;;;;-0.37;85.71;101439.42;105494;1282;22756;-83
2022/01/13 06:36:33;;;;;;;13.10;8.50;;;;;;;-0.39;85.68;101437.90;105776;1281;22577;-82
2022/01/13 06:39:00;;;;;;;11.50;7.90;;;;;;;-0.39;85.88;101444.86;105694;1281;22547;-83
2022/01/13 06:41:30;;;;;;;10.60;6.60;;;;;;;-0.38;85.81;101440.92;106634;1274;25374;-81
2022/01/13 06:43:57;;;;;;;11.90;6.70;;;;;;;-0.34;85.69;101441.80;107468;1274;22881;-80
2022/01/13 06:46:24;;;;;;;10.30;7.90;;;;;;;-0.32;85.69;101435.35;107942;1274;22553;-80
2022/01/13 06:48:51;;;;;;;12.70;8.30;;;;;;;-0.31;85.87;101451.33;108693;1274;22576;-80
2022/01/13 06:51:18;;;;;;;13.90;9.40;;;;;;;-0.29;85.81;101447.27;108077;1276;22616;-81
2022/01/13 06:53:45;;;;;;;12.20;8.10;;;;;;;-0.24;85.81;101448.89;108546;1274;25429;-81
2022/01/13 06:56:13;;;;;;;11.40;8.60;;;;;;;-0.18;85.53;101460.48;108996;1274;22550;-81
2022/01/13 06:58:44;;;;;;;12.60;9.00;;;;;;;-0.17;85.76;101463.98;109055;1274;22588;-80
2022/01/13 07:01:12;;;;;;;10.00;7.80;;;;;;;-0.11;85.76;101478.31;108652;1274;25416;-82
2022/01/13 07:03:39;;;;;;;10.20;7.80;;;;;;;-0.03;85.69;101476.31;108739;1274;23137;-80
2022/01/13 07:06:06;;;;;;;10.80;7.40;;;;;;;0.01;85.39;101471.67;107517;1274;24173;-79
2022/01/13 07:08:33;;;;;;;13.70;8.40;;;;;;;0.01;85.13;101472.38;107767;1276;24685;-80
2022/01/13 07:11:03;;;;;;;14.00;9.00;;;;;;;-0.02;85.25;101482.10;107086;1274;22730;-81
2022/01/13 07:13:33;;;;;;;11.20;8.10;;;;;;;-0.04;85.33;101494.95;106797;1276;22557;-81
2022/01/13 07:16:02;;;;;;;10.70;8.60;;;;;;;-0.03;85.24;101493.80;107053;1277;24352;-81
2022/01/13 07:18:38;;;;;;;10.70;7.00;;;;;;;0.00;85.35;101490.34;106884;1274;23973;-84
2022/01/13 07:21:16;;;;;;;13.40;10.10;;;;;;;0.03;85.16;101477.47;106331;1273;25398;-81
2022/01/13 07:23:45;;;;;;;13.90;9.10;;;;;;;0.06;85.34;101479.52;105957;1274;22721;-83
2022/01/13 07:26:12;;;;;;;14.00;10.10;;;;;;;0.03;85.30;101469.50;106047;1275;23150;-82
2022/01/13 07:28:41;;;;;;;13.80;9.80;;;;;;;0.03;85.36;101467.96;106102;1274;24377;-82
2022/01/13 07:31:09;;;;;;;12.80;8.90;;;;;;;0.04;85.36;101478.91;106067;1274;25435;-81
2022/01/13 07:33:37;;;;;;;14.30;10.40;;;;;;;0.02;85.24;101480.21;106072;1275;23992;-80
2022/01/13 07:36:04;;;;;;;14.30;9.20;;;;;;;0.05;85.39;101464.91;105813;1277;22541;-83
2022/01/13 07:38:31;;;;;;;15.50;9.90;;;;;;;0.06;85.17;101477.98;106125;1276;22710;-80
2022/01/13 07:40:58;;;;;;;15.90;10.80;;;;;;;0.07;85.20;101491.89;105961;1276;22644;-80
2022/01/13 07:43:26;;;;;;;14.40;9.30;;;;;;;0.06;85.50;101484.19;106331;1274;24264;-82
2022/01/13 07:45:56;;;;;;;15.50;10.10;;;;;;;0.04;85.62;101491.24;106121;1275;22556;-82
2022/01/13 07:48:24;;;;;;;17.00;11.40;;;;;;;0.06;85.80;101497.05;106161;1275;22685;-82
2022/01/13 07:50:52;;;;;;;13.60;9.50;;;;;;;0.09;85.80;101498.05;105708;1280;22648;-80
2022/01/13 07:53:21;;;;;;;18.90;11.30;;;;;;;0.09;85.68;101503.45;105769;1279;24227;-82
2022/01/13 07:55:49;;;;;;;11.70;7.80;;;;;;;0.15;85.60;101501.45;105443;1279;24484;-81
2022/01/13 07:58:16;;;;;;;15.30;10.20;;;;;;;0.15;85.57;101489.67;105693;1279;23969;-83
2022/01/13 08:00:43;;;;;;;18.40;11.70;;;;;;;0.14;85.74;101481.34;105857;1279;22543;-81
2022/01/13 08:03:11;;;;;;;16.30;11.50;;;;;;;0.18;85.74;101484.83;105539;1281;24212;-80
2022/01/13 08:05:38;;;;;;;16.60;11.70;;;;;;;0.18;85.79;101475.80;105492;1279;22594;-83
2022/01/13 08:08:05;;;;;;;15.20;10.60;;;;;;;0.19;85.65;101478.10;105796;1281;22590;-80
2022/01/13 08:10:33;;;;;;;18.50;12.60;;;;;;;0.20;85.80;101491.69;106133;1275;22570;-80
2022/01/13 08:13:00;;;;;;;14.50;9.80;;;;;;;0.17;85.99;101495.31;105988;1275;22560;-83
2022/01/13 08:15:29;;;;;;;19.70;12.60;;;;;;;0.14;86.29;101477.87;106137;1275;26499;-84
2022/01/13 08:20:42;;;;;;;17.90;11.70;;;;;;;0.12;86.42;101484.51;106516;1274;22710;-79
2022/01/13 08:23:10;;;;;;;19.60;11.70;;;;;;;0.08;86.48;101474.65;106003;1274;22583;-83
2022/01/13 08:25:37;;;;;;;20.40;12.50;;;;;;;0.11;86.60;101474.77;105721;1281;23941;-82
2022/01/13 08:28:05;;;;;;;18.70;13.00;;;;;;;0.17;86.88;101479.95;105730;1281;23946;-82
2022/01/13 08:30:40;;;;;;;19.60;10.60;;;;;;;0.19;86.90;101479.69;105910;1281;22887;-78
2022/01/13 08:33:08;;;;;;;21.00;13.70;;;;;;;0.19;86.88;101485.56;105737;1281;268434;-82
2022/01/13 08:35:35;;;;;;;15.20;10.50;;;;;;;0.20;86.88;101490.50;105933;1281;22582;-86
2022/01/13 08:38:08;;;;;;;19.00;12.30;;;;;;;0.24;87.07;101488.27;105376;1281;24026;-81
2022/01/13 08:40:36;;;;;;;15.30;11.50;;;;;;;0.29;87.05;101502.33;105608;1282;25272;-82
2022/01/13 08:43:05;;;;;;;14.70;9.10;;;;;;;0.29;86.94;101508.41;105409;1281;22581;-81
2022/01/13 08:45:32;;;;;;;19.40;12.70;;;;;;;0.30;86.85;101504.14;105691;1282;22553;-83
2022/01/13 08:47:59;;;;;;;18.70;12.40;;;;;;;0.32;87.14;101496.09;105440;1281;24278;-83
2022/01/13 08:50:26;;;;;;;21.50;14.10;;;;;;;0.34;87.05;101493.98;106163;1273;22661;-83
2022/01/13 08:52:54;;;;;;;22.30;13.70;;;;;;;0.37;86.97;101489.77;108704;1273;22547;-80
2022/01/13 08:55:21;;;;;;;16.90;11.30;;;;;;;0.41;86.88;101476.42;108955;1273;23516;-81
2022/01/13 08:57:48;;;;;;;19.90;10.40;;;;;;;0.45;86.75;101467.47;108352;1273;22560;-80
2022/01/13 09:00:15;;;;;;;16.30;10.80;;;;;;;0.47;86.61;101446.59;107361;1273;24206;-80
2022/01/13 09:02:44;;;;;;;19.80;12.30;;;;;;;0.47;86.70;101447.29;107300;1279;22508;-81
2022/01/13 09:05:17;;;;;;;16.80;10.40;;;;;;;0.49;86.70;101454.65;107761;1279;23939;-80
2022/01/13 09:07:45;;;;;;;18.10;12.00;;;;;;;0.48;86.94;101457.05;106827;1279;23203;-80
2022/01/13 09:10:15;;;;;;;19.30;12.90;;;;;;;0.45;87.31;101453.09;106336;1279;24262;-80
2022/01/13 09:12:44;;;;;;;17.00;11.20;;;;;;;0.44;87.45;101459.06;105954;1279;24308;-82
2022/01/13 09:15:16;;;;;;;18.70;12.80;;;;;;;0.45;87.26;101465.73;106074;1279;22490;-82
2022/01/13 09:17:51;;;;;;;15.60;10.70;;;;;;;0.47;87.20;101453.00;105227;1285;23052;-82
2022/01/13 09:20:18;;;;;;;15.60;9.50;;;;;;;0.49;87.31;101450.67;105287;1282;22922;-81
2022/01/13 09:22:47;;;;;;;22.20;13.00;;;;;;;0.49;87.11;101462.98;106170;1281;22680;-81
2022/01/13 09:25:14;;;;;;;17.40;12.00;;;;;;;0.51;87.33;101462.87;105646;1281;25379;-80
2022/01/13 09:27:42;;;;;;;15.20;11.00;;;;;;;0.52;87.45;101454.10;105749;1281;25303;-82
2022/01/13 09:30:13;;;;;;;15.70;9.20;;;;;;;0.52;87.41;101451.85;105963;1281;22645;-84
2022/01/13 09:32:40;;;;;;;17.00;11.90;;;;;;;0.53;87.37;101472.85;105600;1281;24282;-83
2022/01/13 09:35:08;;;;;;;21.00;13.10;;;;;;;0.53;87.41;101460.73;105384;1275;22639;-83
2022/01/13 09:37:36;;;;;;;19.80;13.10;;;;;;;0.54;87.49;101448.31;106021;1275;22665;-81
2022/01/13 09:40:07;;;;;;;17.90;12.30;;;;;;;0.60;87.63;101435.05;106144;1273;25033;-78
2022/01/13 09:42:35;;;;;;;18.00;12.00;;;;;;;0.67;87.35;101432.09;105424;1282;25261;-83
2022/01/13 09:45:05;;;;;;;18.90;13.20;;;;;;;0.70;87.44;101435.38;105588;1281;25266;-81
2022/01/13 09:47:33;;;;;;;17.50;12.10;;;;;;;0.67;87.54;101427.76;105828;1281;25278;-81
2022/01/13 09:50:05;;;;;;;15.50;10.00;;;;;;;0.66;87.69;101418.54;105553;1281;25525;-82
2022/01/13 09:52:32;;;;;;;16.40;11.60;;;;;;;0.67;87.70;101411.31;105615;1281;26041;-81
2022/01/13 09:54:59;;;;;;;18.40;11.50;;;;;;;0.65;87.87;101407.75;105355;1281;23276;-81
2022/01/13 09:57:28;;;;;;;21.40;13.10;;;;;;;0.62;87.93;101397.20;105220;1284;24297;-81
2022/01/13 09:59:58;;;;;;;16.60;11.60;;;;;;;0.64;88.19;101390.54;104941;1283;25249;-81
2022/01/13 10:02:25;;;;;;;16.70;9.20;;;;;;;0.71;88.34;101394.51;105891;1279;24273;-81
2022/01/13 10:04:54;;;;;;;15.30;10.10;;;;;;;0.76;87.99;101401.47;105625;1279;22606;-82
2022/01/13 10:07:37;;;;;;;15.30;10.00;;;;;;;0.78;87.97;101396.55;105936;1279;25113;-81
2022/01/13 10:10:28;;;;;;;18.80;11.50;;;;;;;0.81;87.74;101402.75;105810;1279;22492;-85
2022/01/13 10:13:09;;;;;;;16.60;11.40;;;;;;;0.83;87.60;101388.45;105694;1279;23945;-82
2022/01/13 10:18:37;;;;;;;22.00;10.50;;;;;;;0.82;87.65;101376.63;106097;1273;25362;-83
2022/01/13 10:21:09;;;;;;;15.80;10.20;;;;;;;0.82;87.44;101381.13;105965;1273;25454;-81
2022/01/13 10:23:36;;;;;;;15.50;11.00;;;;;;;0.78;87.61;101369.35;106203;1273;22665;-82
2022/01/13 10:26:09;;;;;;;16.10;10.30;;;;;;;0.85;87.91;101380.73;106134;1273;22564;-82
2022/01/13 10:28:36;;;;;;;15.80;10.30;;;;;;;0.88;87.57;101383.13;106222;1274;22662;-81
2022/01/13 10:31:03;;;;;;;13.20;8.90;;;;;;;0.86;87.52;101375.10;105896;1274;22787;-81
2022/01/13 10:33:36;;;;;;;17.50;10.40;;;;;;;0.86;87.63;101386.70;106053;1275;22611;-82
2022/01/13 10:36:09;;;;;;;16.40;11.60;;;;;;;0.87;87.76;101382.41;106020;1279;25656;-82
2022/01/13 10:38:55;;;;;;;12.00;7.70;;;;;;;0.90;87.74;101370.42;105882;1279;22539;-82
2022/01/13 10:42:01;;;;;;;22.20;12.80;;;;;;;0.91;87.75;101365.25;105871;1279;25274;-83
2022/01/13 10:44:21;;;;;;;20.70;12.30;;;;;;;0.93;87.87;101364.30;105821;1281;25829;-83
2022/01/13 10:47:17;;;;;;;17.70;11.50;;;;;;;0.96;87.85;101367.40;106321;1279;22617;-82
2022/01/13 10:49:47;;;;;;;14.80;10.20;;;;;;;1.01;87.84;101361.52;108086;1281;23972;-80
2022/01/13 10:52:26;;;;;;;16.30;11.20;;;;;;;1.02;87.68;101359.84;107717;1279;22560;-81
2022/01/13 10:55:05;;;;;;;17.90;11.50;;;;;;;1.04;87.81;101369.30;107144;1274;25384;-81
2022/01/13 10:57:34;;;;;;;14.80;10.40;;;;;;;1.05;87.89;101362.92;108475;1273;22581;-80
2022/01/13 11:00:17;;;;;;;18.80;11.50;;;;;;;1.08;87.84;101361.15;108367;1273;22561;-79
2022/01/13 11:03:04;;;;;;;16.10;10.40;;;;;;;1.11;87.76;101351.05;107833;1273;25265;-81
2022/01/13 11:05:37;;;;;;;18.10;11.50;;;;;;;1.16;87.68;101341.20;107030;1273;24899;-81
2022/01/13 11:08:07;;;;;;;17.40;11.60;;;;;;;1.23;87.74;101334.41;106471;1276;23964;-80
2022/01/13 11:10:37;;;;;;;12.70;9.20;;;;;;;1.26;87.54;101326.55;106286;1275;25387;-82
2022/01/13 11:13:06;;;;;;;16.70;10.90;;;;;;;1.23;87.59;101316.52;106291;1273;24199;-82
2022/01/13 11:15:38;;;;;;;15.90;10.40;;;;;;;1.26;87.72;101301.89;106058;1273;25347;-79
2022/01/13 11:18:06;;;;;;;15.50;9.90;;;;;;;1.26;87.66;101300.88;105976;1273;25410;-81
2022/01/13 11:20:34;;;;;;;16.00;9.40;;;;;;;1.28;87.55;101304.41;105652;1281;25425;-81
2022/01/13 11:23:02;;;;;;;14.30;9.10;;;;;;;1.28;87.62;101289.85;105489;1281;22867;-82
2022/01/13 11:25:30;;;;;;;15.20;9.80;;;;;;;1.29;87.74;101280.34;105417;1281;22578;-84
2022/01/13 11:27:59;;;;;;;10.70;6.20;;;;;;;1.31;87.69;101282.33;105632;1281;23015;-81
2022/01/13 11:30:32;;;;;;;10.80;6.50;;;;;;;1.29;87.82;101279.11;105292;1284;23763;-80
2022/01/13 11:33:02;;;;;;;13.70;8.80;;;;;;;1.29;87.76;101268.02;105081;1284;25475;-82
2022/01/13 11:35:35;;;;;;;11.90;7.20;;;;;;;1.32;87.73;101267.10;105204;1284;22566;-81
2022/01/13 11:38:05;;;;;;;13.60;9.10;;;;;;;1.34;87.73;101256.57;105231;1284;22578;-82
2022/01/13 11:40:41;;;;;;;14.30;9.30;;;;;;;1.39;87.90;101255.78;104738;1288;25285;-81
2022/01/13 11:43:32;;;;;;;14.40;7.90;;;;;;;1.43;87.76;101257.51;104991;1285;22611;-81
2022/01/13 11:46:25;;;;;;;17.00;8.20;;;;;;;1.42;87.70;101260.73;105082;1284;24164;-79
2022/01/13 11:49:20;;;;;;;13.20;8.70;;;;;;;1.42;87.59;101269.92;104911;1285;22745;-81
2022/01/13 11:51:57;;;;;;;14.70;9.30;;;;;;;1.41;87.86;101268.01;105156;1284;22566;-81
2022/01/13 11:54:36;;;;;;;16.40;9.40;;;;;;;1.40;87.88;101265.52;104923;1285;22576;-78